createdAt,value
2022-10-01T00:00:35.793Z,65.00
2022-10-01T00:03:31.057Z,64.74
2022-10-01T00:06:18.343Z,64.90
2022-10-01T00:08:59.595Z,64.88
2022-10-01T00:11:28.255Z,64.97
2022-10-01T00:14:31.695Z,64.94
2022-10-01T00:17:00.217Z,64.87
2022-10-01T00:19:32.028Z,65.10
2022-10-01T00:22:10.232Z,65.30
2022-10-01T00:24:45.386Z,65.28
2022-10-01T00:27:18.768Z,65.54
2022-10-01T00:29:55.430Z,65.58
2022-10-01T00:32:32.319Z,66.00
2022-10-01T00:35:10.018Z,66.02
2022-10-01T00:37:42.886Z,65.94
2022-10-01T00:40:16.700Z,65.99
2022-10-01T00:42:53.576Z,66.11
2022-10-01T00:45:24.738Z,66.09
2022-10-01T00:48:18.229Z,66.19
2022-10-01T00:50:50.294Z,66.18
2022-10-01T00:53:19.037Z,65.98
2022-10-01T00:55:58.370Z,65.89
2022-10-01T00:59:00.846Z,65.94
2022-10-01T01:01:39.051Z,65.73
2022-10-01T01:04:19.413Z,65.69
2022-10-01T01:07:21.230Z,65.69
2022-10-01T01:09:55.185Z,65.28
2022-10-01T01:13:09.614Z,65.07
2022-10-01T01:16:20.205Z,65.30
2022-10-01T01:20:01.551Z,65.22
2022-10-01T01:22:32.325Z,65.03
2022-10-01T01:25:46.490Z,65.12
2022-10-01T01:28:46.691Z,65.25
2022-10-01T01:31:55.077Z,65.44
2022-10-01T01:34:34.014Z,65.46
2022-10-01T01:37:22.317Z,65.27
2022-10-01T01:40:01.031Z,65.18
2022-10-01T01:42:49.562Z,65.07
2022-10-01T01:45:40.708Z,65.18
2022-10-01T01:48:27.400Z,65.22
2022-10-01T01:52:12.246Z,65.12
2022-10-01T01:55:33.968Z,64.91
2022-10-01T01:58:38.896Z,64.66
2022-10-01T02:02:05.262Z,64.70
2022-10-01T02:05:37.429Z,64.76
2022-10-01T02:08:38.006Z,64.73
2022-10-01T02:11:19.025Z,64.56
2022-10-01T02:14:37.042Z,64.75
2022-10-01T02:17:36.983Z,64.88
2022-10-01T02:20:39.526Z,64.99
2022-10-01T02:23:28.634Z,64.94
2022-10-01T02:26:02.815Z,64.68
2022-10-01T02:28:43.301Z,64.43
2022-10-01T02:31:14.077Z,64.57
2022-10-01T02:33:47.042Z,64.75
2022-10-01T02:36:22.878Z,64.79
2022-10-01T02:39:15.924Z,64.64
2022-10-01T02:41:48.091Z,64.65
2022-10-01T02:44:23.412Z,64.73
2022-10-01T02:47:00.966Z,64.84
2022-10-01T02:49:30.882Z,64.94
2022-10-01T02:52:44.173Z,64.81
2022-10-01T02:55:31.255Z,64.79
2022-10-01T02:58:02.231Z,64.75
2022-10-01T03:00:33.593Z,64.67
2022-10-01T03:03:02.056Z,64.70
2022-10-01T03:05:30.337Z,64.76
2022-10-01T03:08:23.996Z,65.37
2022-10-01T03:10:57.848Z,65.56
2022-10-01T03:13:29.460Z,65.17
2022-10-01T03:16:00.176Z,64.98
2022-10-01T03:18:31.231Z,64.65
2022-10-01T03:20:59.518Z,64.40
2022-10-01T03:23:33.326Z,64.26
2022-10-01T03:26:01.249Z,64.13
2022-10-01T03:28:29.624Z,64.29
2022-10-01T03:34:00.925Z,64.41
2022-10-01T03:36:32.275Z,64.43
2022-10-01T03:39:03.237Z,64.10
2022-10-01T03:41:34.037Z,63.98
2022-10-01T03:44:07.479Z,64.00
2022-10-01T03:46:38.581Z,63.78
2022-10-01T03:49:10.770Z,63.79
2022-10-01T03:51:49.485Z,63.93
2022-10-01T03:54:39.459Z,63.62
2022-10-01T03:57:16.228Z,63.48
2022-10-01T03:59:52.079Z,63.42
2022-10-01T04:02:27.992Z,63.36
2022-10-01T04:05:07.677Z,63.39
2022-10-01T04:07:50.017Z,63.10
2022-10-01T04:10:18.238Z,63.13
2022-10-01T04:12:46.367Z,62.99
2022-10-01T04:15:37.135Z,62.92
2022-10-01T04:18:13.391Z,63.29
2022-10-01T04:20:47.201Z,63.49
2022-10-01T04:23:20.693Z,63.48
2022-10-01T04:25:53.883Z,63.66
2022-10-01T04:28:30.830Z,63.82
2022-10-01T04:31:21.247Z,64.12
2022-10-01T04:34:18.611Z,64.30
2022-10-01T04:36:50.381Z,64.39
2022-10-01T04:39:26.018Z,63.96
2022-10-01T04:41:56.797Z,63.82
2022-10-01T04:44:36.940Z,63.82
2022-10-01T04:47:12.757Z,63.85
2022-10-01T04:49:44.284Z,63.93
2022-10-01T04:52:12.692Z,63.83
2022-10-01T04:54:48.756Z,63.82
2022-10-01T04:57:22.960Z,63.61
2022-10-01T04:59:59.531Z,63.79
2022-10-01T05:02:34.757Z,63.77
2022-10-01T05:05:11.786Z,63.96
2022-10-01T05:07:42.887Z,63.95
2022-10-01T05:10:18.846Z,64.27
2022-10-01T05:12:48.076Z,64.41
2022-10-01T05:15:24.450Z,64.44
2022-10-01T05:17:57.698Z,64.60
2022-10-01T05:20:43.076Z,64.51
2022-10-01T05:23:17.595Z,63.87
2022-10-01T05:25:51.710Z,63.68
2022-10-01T05:28:32.951Z,63.85
2022-10-01T05:31:44.817Z,63.36
2022-10-01T05:34:17.770Z,63.69
2022-10-01T05:36:49.315Z,63.76
2022-10-01T05:39:22.481Z,64.15
2022-10-01T05:41:57.807Z,64.48
2022-10-01T05:44:55.110Z,64.51
2022-10-01T05:48:09.958Z,64.12
2022-10-01T05:51:08.547Z,64.11
2022-10-01T05:54:23.001Z,64.06
2022-10-01T05:57:20.345Z,64.42
2022-10-01T06:00:33.962Z,65.70
2022-10-01T06:03:15.191Z,65.98
2022-10-01T06:05:49.099Z,66.11
2022-10-01T06:08:22.824Z,65.84
2022-10-01T06:10:59.701Z,65.14
2022-10-01T06:13:33.537Z,65.16
2022-10-01T06:16:08.321Z,64.78
2022-10-01T06:18:38.945Z,64.64
2022-10-01T06:21:10.534Z,64.11
2022-10-01T06:23:45.061Z,63.35
2022-10-01T06:26:18.668Z,63.31
2022-10-01T06:29:07.846Z,63.27
2022-10-01T06:31:41.964Z,62.96
2022-10-01T06:34:25.207Z,62.67
2022-10-01T06:37:04.762Z,62.69
2022-10-01T06:39:35.693Z,62.70
2022-10-01T06:42:26.840Z,62.64
2022-10-01T06:45:15.201Z,62.55
2022-10-01T06:47:47.556Z,62.59
2022-10-01T06:50:36.090Z,62.92
2022-10-01T06:53:13.132Z,62.81
2022-10-01T06:55:44.402Z,62.86
2022-10-01T06:58:28.484Z,62.91
2022-10-01T07:01:08.331Z,62.87
2022-10-01T07:03:41.997Z,62.56
2022-10-01T07:06:16.417Z,62.37
2022-10-01T07:08:50.450Z,62.07
2022-10-01T07:11:54.795Z,61.90
2022-10-01T07:14:33.262Z,61.72
2022-10-01T07:17:22.352Z,61.75
2022-10-01T07:19:53.948Z,61.49
2022-10-01T07:22:35.239Z,61.63
2022-10-01T07:25:20.027Z,61.34
2022-10-01T07:28:04.650Z,61.52
2022-10-01T07:30:36.133Z,61.57
2022-10-01T07:33:07.094Z,61.31
2022-10-01T07:35:38.270Z,61.44
2022-10-01T07:38:10.477Z,61.80
2022-10-01T07:40:42.034Z,61.53
2022-10-01T07:43:10.587Z,62.12
2022-10-01T07:45:47.296Z,61.39
2022-10-01T07:48:26.520Z,61.52
2022-10-01T07:51:05.035Z,61.18
2022-10-01T07:53:36.387Z,61.38
2022-10-01T07:56:07.621Z,61.34
2022-10-01T07:58:38.739Z,60.73
2022-10-01T08:01:12.312Z,60.73
2022-10-01T08:03:43.512Z,60.07
2022-10-01T08:06:34.386Z,60.05
2022-10-01T08:09:26.093Z,60.05
2022-10-01T08:11:56.874Z,60.30
2022-10-01T08:14:30.467Z,60.31
2022-10-01T08:17:19.363Z,59.93
2022-10-01T08:19:52.113Z,60.24
2022-10-01T08:22:55.522Z,60.10
2022-10-01T08:25:38.660Z,60.03
2022-10-01T08:28:20.865Z,60.12
2022-10-01T08:31:18.217Z,60.30
2022-10-01T08:34:12.022Z,60.90
2022-10-01T08:36:57.630Z,61.14
2022-10-01T08:39:31.216Z,60.79
2022-10-01T08:42:14.469Z,61.36
2022-10-01T08:45:11.756Z,61.31
2022-10-01T08:47:53.738Z,61.06
2022-10-01T08:50:35.062Z,60.94
2022-10-01T08:53:15.748Z,60.60
2022-10-01T08:55:59.613Z,60.36
2022-10-01T08:58:40.641Z,60.07
2022-10-01T09:01:11.996Z,60.22
2022-10-01T09:04:07.014Z,60.10
2022-10-01T09:06:46.882Z,60.18
2022-10-01T09:09:39.948Z,58.92
2022-10-01T09:12:49.966Z,58.92
2022-10-01T09:15:35.417Z,60.92
2022-10-01T09:19:32.141Z,62.85
2022-10-01T09:23:29.074Z,63.44
2022-10-01T09:26:57.853Z,61.49
2022-10-01T09:29:53.580Z,61.28
2022-10-01T09:33:25.216Z,58.38
2022-10-01T09:36:23.961Z,60.34
2022-10-01T09:40:14.444Z,61.43
2022-10-01T09:43:29.607Z,63.94
2022-10-01T09:46:58.127Z,64.53
2022-10-01T09:50:17.985Z,62.35
2022-10-01T09:53:59.480Z,61.35
2022-10-01T09:57:32.074Z,59.54
2022-10-01T10:00:58.343Z,57.55
2022-10-01T10:04:53.601Z,61.07
2022-10-01T10:07:57.307Z,62.93
2022-10-01T10:10:35.867Z,61.47
2022-10-01T10:13:10.809Z,61.61
2022-10-01T10:16:25.147Z,59.25
2022-10-01T10:19:30.063Z,58.64
2022-10-01T10:22:25.002Z,61.56
2022-10-01T10:25:05.408Z,63.31
2022-10-01T10:27:33.651Z,62.58
2022-10-01T10:30:34.601Z,61.36
2022-10-01T10:33:05.521Z,59.53
2022-10-01T10:36:31.179Z,57.25
2022-10-01T10:39:45.359Z,58.35
2022-10-01T10:42:19.902Z,60.35
2022-10-01T10:44:53.149Z,61.44
2022-10-01T10:47:31.721Z,64.70
2022-10-01T10:50:09.741Z,64.67
2022-10-01T10:52:45.698Z,63.71
2022-10-01T10:55:31.187Z,62.74
2022-10-01T10:58:15.007Z,60.49
2022-10-01T11:00:59.450Z,60.50
2022-10-01T11:03:32.997Z,59.09
2022-10-01T11:06:20.118Z,57.26
2022-10-01T11:09:07.536Z,58.88
2022-10-01T11:12:25.206Z,61.94
2022-10-01T11:15:34.738Z,62.65
2022-10-01T11:19:02.690Z,60.65
2022-10-01T11:21:59.058Z,58.79
2022-10-01T11:25:22.796Z,56.04
2022-10-01T11:28:55.756Z,57.91
2022-10-01T11:32:22.153Z,58.77
2022-10-01T11:35:34.441Z,59.24
2022-10-01T11:39:14.017Z,61.13
2022-10-01T11:41:55.948Z,62.39
2022-10-01T11:45:02.648Z,62.76
2022-10-01T11:48:02.055Z,58.36
2022-10-01T11:50:53.321Z,57.05
2022-10-01T11:53:36.478Z,57.48
2022-10-01T11:56:30.368Z,59.10
2022-10-01T11:59:06.813Z,60.53
2022-10-01T12:02:28.280Z,61.02
2022-10-01T12:05:07.937Z,65.75
2022-10-01T12:08:28.137Z,64.56
2022-10-01T12:11:23.648Z,60.67
2022-10-01T12:14:02.283Z,57.38
2022-10-01T12:17:20.042Z,57.07
2022-10-01T12:19:55.667Z,58.88
2022-10-01T12:22:50.146Z,59.46
2022-10-01T12:26:11.715Z,60.32
2022-10-01T12:29:38.374Z,63.38
2022-10-01T12:33:23.747Z,62.55
2022-10-01T12:36:26.125Z,60.31
2022-10-01T12:39:48.980Z,58.04
2022-10-01T12:43:39.697Z,56.42
2022-10-01T12:46:49.943Z,59.07
2022-10-01T12:50:22.081Z,59.78
2022-10-01T12:53:31.972Z,60.72
2022-10-01T12:56:46.283Z,60.80
2022-10-01T12:59:42.369Z,61.53
2022-10-01T13:02:35.202Z,61.79
2022-10-01T13:05:58.200Z,65.17
2022-10-01T13:09:54.343Z,64.26
2022-10-01T13:13:07.822Z,60.94
2022-10-01T13:15:49.686Z,60.85
2022-10-01T13:18:49.072Z,58.61
2022-10-01T13:22:28.386Z,57.66
2022-10-01T13:25:47.924Z,59.10
2022-10-01T13:29:21.659Z,60.39
2022-10-01T13:32:27.683Z,60.78
2022-10-01T13:35:59.662Z,62.81
2022-10-01T13:38:56.117Z,69.15
2022-10-01T13:41:34.059Z,68.25
2022-10-01T13:44:45.545Z,66.72
2022-10-01T13:47:21.967Z,65.80
2022-10-01T13:50:37.988Z,64.75
2022-10-01T13:53:52.163Z,64.03
2022-10-01T13:57:27.006Z,63.09
2022-10-01T14:00:59.052Z,62.61
2022-10-01T14:04:15.767Z,61.90
2022-10-01T14:07:46.816Z,61.94
2022-10-01T14:11:39.641Z,62.27
2022-10-01T14:15:02.478Z,62.47
2022-10-01T14:17:56.934Z,62.90
2022-10-01T14:21:05.565Z,62.93
2022-10-01T14:24:28.300Z,63.07
2022-10-01T14:27:57.881Z,63.70
2022-10-01T14:30:47.870Z,63.50
2022-10-01T14:33:57.991Z,63.56
2022-10-01T14:36:55.695Z,63.81
2022-10-01T14:39:53.760Z,63.71
2022-10-01T14:43:17.342Z,63.97
2022-10-01T14:46:45.949Z,64.00
2022-10-01T14:49:37.697Z,64.30
2022-10-01T14:52:47.112Z,64.02
2022-10-01T14:55:34.316Z,63.25
2022-10-01T14:58:02.663Z,63.15
2022-10-01T15:00:33.316Z,63.28
2022-10-01T15:03:17.752Z,63.43
2022-10-01T15:06:21.792Z,63.12
2022-10-01T15:09:15.535Z,62.70
2022-10-01T15:11:52.598Z,62.73
2022-10-01T15:14:27.181Z,62.90
2022-10-01T15:17:47.245Z,62.91
2022-10-01T15:20:18.666Z,62.87
2022-10-01T15:23:11.021Z,62.60
2022-10-01T15:26:06.054Z,62.23
2022-10-01T15:29:05.791Z,62.33
2022-10-01T15:31:54.973Z,62.56
2022-10-01T15:34:37.169Z,62.74
2022-10-01T15:37:16.709Z,62.98
2022-10-01T15:39:58.598Z,63.20
2022-10-01T15:42:38.778Z,63.64
2022-10-01T15:45:12.802Z,63.93
2022-10-01T15:48:48.144Z,64.04
2022-10-01T15:51:31.170Z,64.13
2022-10-01T15:54:11.688Z,64.11
2022-10-01T15:56:42.262Z,64.18
2022-10-01T15:59:30.767Z,63.89
2022-10-01T16:02:01.514Z,64.26
2022-10-01T16:04:58.295Z,64.41
2022-10-01T16:07:34.927Z,64.53
2022-10-01T16:10:40.842Z,64.84
2022-10-01T16:14:01.705Z,65.27
2022-10-01T16:16:53.663Z,65.29
2022-10-01T16:20:36.758Z,65.45
2022-10-01T16:23:47.014Z,65.10
2022-10-01T16:27:03.182Z,64.92
2022-10-01T16:29:37.391Z,64.92
2022-10-01T16:32:26.005Z,65.11
2022-10-01T16:35:26.394Z,64.95
2022-10-01T16:38:20.408Z,65.09
2022-10-01T16:40:52.625Z,65.04
2022-10-01T16:43:24.428Z,64.97
2022-10-01T16:46:03.005Z,65.25
2022-10-01T16:48:38.576Z,65.16
2022-10-01T16:51:40.498Z,64.85
2022-10-01T16:54:42.329Z,64.62
2022-10-01T16:57:16.713Z,64.91
2022-10-01T16:59:53.523Z,64.74
2022-10-01T17:02:32.962Z,65.05
2022-10-01T17:05:31.482Z,64.78
2022-10-01T17:08:13.686Z,64.60
2022-10-01T17:10:47.363Z,64.65
2022-10-01T17:13:17.948Z,64.95
2022-10-01T17:15:51.889Z,65.03
2022-10-01T17:18:55.633Z,64.94
2022-10-01T17:21:29.707Z,64.52
2022-10-01T17:24:21.428Z,64.47
2022-10-01T17:26:52.593Z,64.69
2022-10-01T17:29:26.792Z,64.42
2022-10-01T17:31:55.259Z,64.38
2022-10-01T17:34:26.632Z,64.77
2022-10-01T17:36:59.936Z,64.69
2022-10-01T17:40:17.021Z,64.81
2022-10-01T17:43:03.604Z,64.42
2022-10-01T17:45:36.561Z,65.48
2022-10-01T17:49:07.329Z,65.58
2022-10-01T17:51:54.721Z,65.65
2022-10-01T17:55:04.181Z,66.28
2022-10-01T17:57:43.939Z,66.05
2022-10-01T18:00:32.949Z,66.61
2022-10-01T18:03:25.978Z,66.90
2022-10-01T18:06:16.845Z,67.33
2022-10-01T18:09:55.803Z,67.28
2022-10-01T18:12:52.850Z,67.10
2022-10-01T18:15:32.064Z,66.80
2022-10-01T18:21:51.071Z,67.06
2022-10-01T18:24:36.547Z,67.55
2022-10-01T18:27:19.713Z,67.19
2022-10-01T18:29:56.533Z,66.89
2022-10-01T18:32:26.729Z,67.09
2022-10-01T18:35:01.696Z,66.78
2022-10-01T18:37:46.828Z,66.91
2022-10-01T18:40:43.262Z,66.37
2022-10-01T18:43:27.310Z,66.26
2022-10-01T18:46:13.899Z,66.63
2022-10-01T18:48:57.936Z,66.66
2022-10-01T18:51:54.250Z,65.86
2022-10-01T18:55:08.674Z,66.57
2022-10-01T18:57:59.346Z,66.72
2022-10-01T19:00:35.735Z,67.84
2022-10-01T19:03:22.760Z,67.43
2022-10-01T19:06:53.823Z,67.36
2022-10-01T19:09:52.263Z,67.87
2022-10-01T19:12:46.902Z,67.95
2022-10-01T19:15:48.280Z,67.53
2022-10-01T19:18:51.966Z,67.62
2022-10-01T19:21:49.488Z,68.14
2022-10-01T19:24:29.605Z,67.57
2022-10-01T19:27:20.993Z,67.22
2022-10-01T19:30:06.056Z,67.26
2022-10-01T19:33:03.256Z,66.62
2022-10-01T19:35:39.204Z,66.46
2022-10-01T19:38:40.626Z,66.22
2022-10-01T19:41:44.790Z,66.44
2022-10-01T19:44:19.537Z,66.29
2022-10-01T19:46:47.969Z,66.44
2022-10-01T19:49:36.642Z,66.50
2022-10-01T19:52:38.131Z,66.20
2022-10-01T19:55:19.556Z,66.06
2022-10-01T19:57:50.876Z,66.62
2022-10-01T20:00:30.565Z,66.45
2022-10-01T20:03:29.639Z,66.42
2022-10-01T20:06:13.538Z,66.23
2022-10-01T20:08:58.600Z,65.97
2022-10-01T20:11:48.168Z,65.92
2022-10-01T20:15:08.515Z,66.23
2022-10-01T20:18:30.113Z,66.08
2022-10-01T20:21:55.034Z,66.71
2022-10-01T20:24:55.165Z,66.44
2022-10-01T20:28:09.913Z,65.81
2022-10-01T20:31:25.150Z,65.62
2022-10-01T20:34:45.543Z,65.97
2022-10-01T20:38:30.736Z,66.06
2022-10-01T20:41:14.763Z,66.53
2022-10-01T20:44:16.219Z,66.40
2022-10-01T20:47:31.574Z,66.91
2022-10-01T20:50:45.329Z,68.10
2022-10-01T20:53:58.382Z,68.28
2022-10-01T20:56:44.546Z,68.43
2022-10-01T20:59:27.857Z,68.37
2022-10-01T21:02:31.344Z,68.57
2022-10-01T21:05:12.838Z,68.34
2022-10-01T21:07:58.608Z,68.57
2022-10-01T21:11:04.067Z,68.95
2022-10-01T21:13:56.372Z,68.87
2022-10-01T21:17:38.012Z,68.99
2022-10-01T21:20:59.545Z,69.09
2022-10-01T21:24:26.129Z,69.81
2022-10-01T21:27:48.051Z,69.64
2022-10-01T21:30:53.976Z,69.75
2022-10-01T21:33:37.261Z,69.76
2022-10-01T21:37:16.249Z,69.55
2022-10-01T21:39:54.041Z,69.38
2022-10-01T21:43:08.163Z,69.19
2022-10-01T21:46:22.193Z,69.37
2022-10-01T21:49:40.354Z,69.24
2022-10-01T21:52:57.299Z,69.30
2022-10-01T21:56:16.782Z,69.42
2022-10-01T22:00:02.048Z,68.97
2022-10-01T22:02:50.537Z,69.18
2022-10-01T22:05:32.684Z,68.93
2022-10-01T22:08:25.112Z,68.78
2022-10-01T22:10:56.763Z,68.92
2022-10-01T22:13:35.098Z,68.68
2022-10-01T22:16:08.502Z,68.68
2022-10-01T22:18:51.713Z,68.86
2022-10-01T22:21:50.688Z,68.80
2022-10-01T22:24:24.911Z,68.56
2022-10-01T22:27:00.761Z,69.03
2022-10-01T22:29:29.572Z,69.36
2022-10-01T22:32:03.054Z,69.36
2022-10-01T22:34:48.391Z,69.36
2022-10-01T22:37:25.211Z,69.22
2022-10-01T22:40:12.250Z,69.26
2022-10-01T22:42:47.696Z,69.09
2022-10-01T22:45:18.696Z,68.84
2022-10-01T22:48:03.670Z,68.78
2022-10-01T22:51:15.574Z,68.66
2022-10-01T22:54:40.299Z,68.82
2022-10-01T22:57:23.306Z,68.81
2022-10-01T23:00:13.322Z,68.71
2022-10-01T23:03:30.790Z,68.70
2022-10-01T23:06:15.725Z,68.62
2022-10-01T23:08:58.344Z,68.59
2022-10-01T23:11:59.609Z,68.42
2022-10-01T23:14:46.051Z,68.70
2022-10-01T23:18:05.737Z,68.76
2022-10-01T23:21:21.646Z,68.82
2022-10-01T23:24:35.940Z,68.90
2022-10-01T23:27:59.706Z,68.82
2022-10-01T23:31:26.577Z,68.84
2022-10-01T23:34:36.751Z,68.83
2022-10-01T23:38:27.555Z,68.93
2022-10-01T23:41:38.783Z,69.34
2022-10-01T23:44:36.270Z,69.85
2022-10-01T23:47:10.025Z,70.21
2022-10-01T23:49:54.905Z,70.40
2022-10-01T23:53:18.654Z,70.15
2022-10-01T23:57:10.086Z,70.00
2022-10-01T23:59:48.081Z,70.42
